Time,TemperatureF,DewpointF,PressureIn,WindDirection,WindDirectionDegrees,WindSpeedMPH,WindSpeedGustMPH,Humidity,HourlyPrecipIn,Conditions,Clouds,dailyrainin,SoftwareType,DateUTC
2013-11-15 00:01:00,48.0,45.5,29.86,ENE,60,0.0,0.0,91,0.00,,,0.00,WeatherTracker,2013-11-15 08:01:00,
2013-11-15 00:25:00,47.6,45.1,29.85,ENE,60,0.0,0.0,91,0.00,,,0.00,WeatherTracker,2013-11-15 08:25:00,
2013-11-15 00:53:00,47.5,45.0,29.86,ENE,60,0.0,0.0,91,0.00,,,0.00,WeatherTracker,2013-11-15 08:53:00,
2013-11-15 01:04:00,47.3,45.1,29.85,ENE,60,0.0,0.0,92,0.00,,,0.00,WeatherTracker,2013-11-15 09:04:00,
2013-11-15 01:11:00,47.2,45.0,29.84,ENE,60,0.0,0.0,92,0.00,,,0.00,WeatherTracker,2013-11-15 09:11:00,
2013-11-15 01:56:00,46.8,44.6,29.83,ENE,60,0.0,0.0,92,0.00,,,0.00,WeatherTracker,2013-11-15 09:56:00,
2013-11-15 02:01:00,46.7,44.5,29.84,ENE,60,0.0,0.0,92,0.00,,,0.00,WeatherTracker,2013-11-15 10:01:00,
2013-11-15 02:18:00,46.4,44.2,29.83,ENE,60,0.0,0.0,92,0.00,,,0.00,WeatherTracker,2013-11-15 10:18:00,
2013-11-15 03:34:00,45.1,42.9,29.82,ENE,60,0.0,0.0,92,0.00,,,0.00,WeatherTracker,2013-11-15 11:34:00,
2013-11-15 03:51:00,44.7,42.5,29.81,ENE,60,0.0,0.0,92,0.00,,,0.00,WeatherTracker,2013-11-15 11:51:00,
2013-11-15 04:25:00,44.2,42.0,29.82,ENE,60,0.0,0.0,92,0.00,,,0.00,WeatherTracker,2013-11-15 12:25:00,
2013-11-15 05:12:00,43.3,41.1,29.81,ENE,60,0.0,0.0,92,0.00,,,0.00,WeatherTracker,2013-11-15 13:12:00,
2013-11-15 06:03:00,42.4,40.2,29.81,ENE,60,0.0,0.0,92,0.00,,,0.00,WeatherTracker,2013-11-15 14:03:00,
2013-11-15 06:16:00,42.2,40.0,29.81,ENE,60,0.0,0.0,92,0.00,,,0.00,WeatherTracker,2013-11-15 14:16:00,
2013-11-15 06:31:00,42.0,39.8,29.81,ENE,60,0.0,0.0,92,0.00,,,0.00,WeatherTracker,2013-11-15 14:31:00,
2013-11-15 06:43:00,41.8,39.6,29.82,ENE,60,0.0,0.0,92,0.00,,,0.00,WeatherTracker,2013-11-15 14:43:00,
2013-11-15 07:41:00,41.5,39.4,29.82,ENE,60,0.0,0.0,92,0.00,,,0.00,WeatherTracker,2013-11-15 15:41:00,
2013-11-15 07:57:00,42.1,39.9,29.82,ENE,60,0.0,0.0,92,0.00,,,0.00,WeatherTracker,2013-11-15 15:57:00,
2013-11-15 08:10:00,43.1,41.2,29.81,ENE,60,0.0,0.0,93,0.00,,,0.00,WeatherTracker,2013-11-15 16:10:00,
2013-11-15 08:29:00,45.0,43.4,29.81,ENE,60,0.0,0.0,94,0.00,,,0.00,WeatherTracker,2013-11-15 16:29:00,
2013-11-15 08:41:00,46.7,45.1,29.81,ENE,60,0.0,0.0,94,0.00,,,0.00,WeatherTracker,2013-11-15 16:41:00,
2013-11-15 10:06:00,54.6,47.2,29.80,ENE,64,0.0,0.0,76,0.00,,,0.00,WeatherTracker,2013-11-15 18:06:00,
2013-11-15 10:23:00,56.0,46.4,29.80,ENE,64,0.0,0.0,70,0.00,,,0.00,WeatherTracker,2013-11-15 18:23:00,
2013-11-15 10:35:00,57.1,46.6,29.79,ENE,64,0.0,0.0,68,0.00,,,0.00,WeatherTracker,2013-11-15 18:35:00,
2013-11-15 10:46:00,58.2,47.7,29.79,ENE,64,0.0,0.0,68,0.00,,,0.00,WeatherTracker,2013-11-15 18:46:00,
2013-11-15 10:55:00,59.4,48.4,29.79,ENE,64,0.0,0.0,67,0.00,,,0.00,WeatherTracker,2013-11-15 18:55:00,
2013-11-15 11:11:00,61.1,47.1,29.78,ENE,64,0.0,0.0,60,0.00,,,0.00,WeatherTracker,2013-11-15 19:11:00,
2013-11-15 11:28:00,61.8,48.6,29.77,ENE,64,0.0,0.0,62,0.00,,,0.00,WeatherTracker,2013-11-15 19:28:00,
2013-11-15 12:54:00,66.7,42.9,29.73,East,96,0.0,0.0,42,0.00,,,0.00,WeatherTracker,2013-11-15 20:54:00,
2013-11-15 14:10:00,65.6,43.1,29.71,ENE,59,0.0,0.0,44,0.00,,,0.00,WeatherTracker,2013-11-15 22:10:00,
2013-11-15 14:48:00,62.5,45.6,29.71,NE,42,0.0,0.0,54,0.00,,,0.00,WeatherTracker,2013-11-15 22:48:00,
2013-11-15 15:31:00,60.9,44.6,29.71,ENE,59,0.0,0.0,55,0.00,,,0.00,WeatherTracker,2013-11-15 23:31:00,
2013-11-15 15:47:00,60.6,46.2,29.71,ENE,60,0.0,0.0,59,0.00,,,0.00,WeatherTracker,2013-11-15 23:47:00,
2013-11-15 16:04:00,60.2,44.4,29.70,ENE,63,0.0,0.0,56,0.00,,,0.00,WeatherTracker,2013-11-16 00:04:00,
2013-11-15 16:11:00,60.0,43.3,29.69,ENE,63,0.0,0.0,54,0.00,,,0.00,WeatherTracker,2013-11-16 00:11:00,
2013-11-15 16:40:00,59.0,43.8,29.70,ENE,63,0.0,0.0,57,0.00,,,0.00,WeatherTracker,2013-11-16 00:40:00,
2013-11-15 17:00:00,57.7,43.5,29.71,ENE,63,0.0,0.0,59,0.00,,,0.00,WeatherTracker,2013-11-16 01:00:00,
2013-11-15 17:11:00,56.9,43.2,29.71,ENE,63,0.0,0.0,60,0.00,,,0.00,WeatherTracker,2013-11-16 01:11:00,
2013-11-15 17:28:00,55.9,43.1,29.71,ENE,63,0.0,0.0,62,0.00,,,0.00,WeatherTracker,2013-11-16 01:28:00,
2013-11-15 17:41:00,55.0,43.0,29.72,ENE,63,0.0,0.0,64,0.00,,,0.00,WeatherTracker,2013-11-16 01:41:00,
2013-11-15 17:51:00,54.4,43.3,29.72,ENE,63,0.0,0.0,66,0.00,,,0.00,WeatherTracker,2013-11-16 01:51:00,
2013-11-15 18:01:00,53.8,43.5,29.73,ENE,63,0.0,0.0,68,0.00,,,0.00,WeatherTracker,2013-11-16 02:01:00,
2013-11-15 18:24:00,52.4,43.3,29.73,ENE,63,0.0,0.0,71,0.00,,,0.00,WeatherTracker,2013-11-16 02:24:00,
2013-11-15 18:44:00,51.1,42.8,29.73,ENE,63,0.0,0.0,73,0.00,,,0.00,WeatherTracker,2013-11-16 02:44:00,
2013-11-15 19:17:00,49.5,42.3,29.73,ENE,63,0.0,0.0,76,0.00,,,0.00,WeatherTracker,2013-11-16 03:17:00,
2013-11-15 19:42:00,48.7,42.8,29.73,ENE,63,0.0,0.0,80,0.00,,,0.00,WeatherTracker,2013-11-16 03:42:00,
2013-11-15 19:54:00,48.5,42.9,29.75,ENE,63,0.0,0.0,81,0.00,,,0.00,WeatherTracker,2013-11-16 03:54:00,
2013-11-15 20:02:00,48.3,42.7,29.74,ENE,63,0.0,0.0,81,0.00,,,0.00,WeatherTracker,2013-11-16 04:02:00,
2013-11-15 20:11:00,48.1,42.9,29.75,ENE,63,0.0,0.0,82,0.00,,,0.00,WeatherTracker,2013-11-16 04:11:00,
2013-11-15 20:21:00,47.9,43.0,29.75,ENE,63,0.0,0.0,83,0.00,,,0.00,WeatherTracker,2013-11-16 04:21:00,
2013-11-15 21:11:00,46.7,42.1,29.76,ENE,63,0.0,0.0,84,0.00,,,0.00,WeatherTracker,2013-11-16 05:11:00,
2013-11-15 21:21:00,46.4,42.1,29.76,ENE,63,0.0,0.0,85,0.00,,,0.00,WeatherTracker,2013-11-16 05:21:00,
2013-11-15 21:48:00,45.9,42.0,29.76,ENE,63,0.0,0.0,86,0.00,,,0.00,WeatherTracker,2013-11-16 05:48:00,
2013-11-15 21:52:00,45.8,41.9,29.76,ENE,63,0.0,0.0,86,0.00,,,0.00,WeatherTracker,2013-11-16 05:52:00,
2013-11-15 22:08:00,45.5,41.9,29.75,ENE,63,0.0,0.0,87,0.00,,,0.00,WeatherTracker,2013-11-16 06:08:00,
2013-11-15 23:31:00,43.6,40.3,29.75,ENE,63,0.0,0.0,88,0.00,,,0.00,WeatherTracker,2013-11-16 07:31:00,
2013-11-15 23:45:00,43.4,40.1,29.76,ENE,63,0.0,0.0,88,0.00,,,0.00,WeatherTracker,2013-11-16 07:45:00,